N33M KCHA-KLFT
Flight info
| Callsign | N33M |
|---|---|
| Flight time | 1h 8m |
| Altitude | 34000 |
| Route | CHA9 NIOLA Q40 DOOMS NTCHZ HEZGT MOGAN BEDDY |
| Aircraft | C750/M-VGDW/C |
Departure
| Time | 2026-04-26 22:16 |
|---|---|
| Airport | Chattanooga Metropolitan Airport (Lovell Field) (KCHA) |
Arrival
| Time | 2026-04-26 23:25 |
|---|---|
| Airport | Lafayette Regional Airport (KLFT) |
| Time | Latitude | Longitude | Altitude | Speed | Heading |
|---|---|---|---|---|---|
| 2026-04-26 21:53 | 35.03323 | -85.20620 | 675 ft | 0 kts | 18° |
| 2026-04-26 22:11 | 35.03324 | -85.20619 | 675 ft | 1 kts | 18° |
| 2026-04-26 22:11 | 35.03345 | -85.20595 | 675 ft | 4 kts | 73° |
| 2026-04-26 22:12 | 35.03333 | -85.20564 | 676 ft | 5 kts | 157° |
| 2026-04-26 22:12 | 35.03281 | -85.20531 | 677 ft | 12 kts | 171° |
| 2026-04-26 22:12 | 35.03177 | -85.20557 | 677 ft | 16 kts | 197° |
| 2026-04-26 22:12 | 35.03061 | -85.20600 | 677 ft | 18 kts | 196° |
| 2026-04-26 22:13 | 35.02978 | -85.20562 | 677 ft | 13 kts | 108° |
| 2026-04-26 22:13 | 35.02951 | -85.20448 | 679 ft | 15 kts | 106° |
| 2026-04-26 22:13 | 35.02872 | -85.20390 | 678 ft | 15 kts | 194° |
| 2026-04-26 22:13 | 35.02760 | -85.20428 | 677 ft | 17 kts | 197° |
| 2026-04-26 22:14 | 35.02639 | -85.20475 | 677 ft | 18 kts | 198° |
| 2026-04-26 22:14 | 35.02513 | -85.20523 | 676 ft | 19 kts | 196° |
| 2026-04-26 22:14 | 35.02381 | -85.20569 | 675 ft | 19 kts | 196° |
| 2026-04-26 22:14 | 35.02267 | -85.20625 | 675 ft | 16 kts | 229° |
| 2026-04-26 22:15 | 35.02281 | -85.20736 | 673 ft | 11 kts | 335° |
| 2026-04-26 22:15 | 35.02351 | -85.20721 | 673 ft | 13 kts | 17° |
| 2026-04-26 22:15 | 35.02719 | -85.20588 | 675 ft | 102 kts | 17° |
| 2026-04-26 22:15 | 35.03638 | -85.20252 | 760 ft | 163 kts | 17° |
| 2026-04-26 22:16 | 35.04807 | -85.19793 | 1233 ft | 189 kts | 20° |
| 2026-04-26 22:16 | 35.06142 | -85.19247 | 1714 ft | 214 kts | 17° |
| 2026-04-26 22:16 | 35.07628 | -85.18691 | 2258 ft | 234 kts | 17° |
| 2026-04-26 22:16 | 35.09209 | -85.17909 | 2767 ft | 254 kts | 36° |
| 2026-04-26 22:17 | 35.10260 | -85.16127 | 3248 ft | 270 kts | 72° |
| 2026-04-26 22:17 | 35.10259 | -85.13850 | 3766 ft | 277 kts | 106° |
| 2026-04-26 22:17 | 35.09179 | -85.11907 | 4299 ft | 290 kts | 141° |
| 2026-04-26 22:17 | 35.07333 | -85.11102 | 5683 ft | 289 kts | 173° |
| 2026-04-26 22:18 | 35.05368 | -85.10938 | 7090 ft | 285 kts | 174° |
| 2026-04-26 22:18 | 35.03418 | -85.10774 | 8230 ft | 288 kts | 175° |
| 2026-04-26 22:18 | 35.01426 | -85.10667 | 9270 ft | 294 kts | 183° |
| 2026-04-26 22:18 | 34.99439 | -85.11433 | 9930 ft | 314 kts | 207° |
| 2026-04-26 22:19 | 34.97496 | -85.12812 | 9998 ft | 328 kts | 210° |
| 2026-04-26 22:19 | 34.95522 | -85.14262 | 9990 ft | 330 kts | 211° |
| 2026-04-26 22:19 | 34.93577 | -85.15715 | 9992 ft | 331 kts | 211° |
| 2026-04-26 22:19 | 34.91627 | -85.17167 | 10300 ft | 325 kts | 211° |
| 2026-04-26 22:20 | 34.89698 | -85.18597 | 11456 ft | 322 kts | 212° |
| 2026-04-26 22:20 | 34.88460 | -85.19516 | 12296 ft | 317 kts | 212° |
| 2026-04-26 22:20 | 34.85954 | -85.21379 | 13695 ft | 318 kts | 213° |
| 2026-04-26 22:20 | 34.84075 | -85.22778 | 14566 ft | 322 kts | 213° |
| 2026-04-26 22:21 | 34.82146 | -85.24212 | 15416 ft | 327 kts | 213° |
| 2026-04-26 22:21 | 34.80217 | -85.25645 | 16260 ft | 331 kts | 214° |
| 2026-04-26 22:21 | 34.78310 | -85.27232 | 17050 ft | 332 kts | 227° |
| 2026-04-26 22:21 | 34.76957 | -85.29449 | 17869 ft | 331 kts | 240° |
| 2026-04-26 22:22 | 34.75646 | -85.31757 | 18663 ft | 335 kts | 238° |
| 2026-04-26 22:22 | 34.74321 | -85.34100 | 19436 ft | 338 kts | 239° |
| 2026-04-26 22:22 | 34.72977 | -85.36468 | 20167 ft | 342 kts | 239° |
| 2026-04-26 22:22 | 34.71633 | -85.38828 | 20898 ft | 345 kts | 239° |
| 2026-04-26 22:23 | 34.70266 | -85.41233 | 21588 ft | 349 kts | 239° |
| 2026-04-26 22:23 | 34.68890 | -85.43647 | 22289 ft | 351 kts | 240° |
| 2026-04-26 22:23 | 34.67506 | -85.46080 | 22942 ft | 355 kts | 240° |
| 2026-04-26 22:23 | 34.66088 | -85.48564 | 23621 ft | 357 kts | 240° |
| 2026-04-26 22:24 | 34.64668 | -85.51061 | 24271 ft | 361 kts | 240° |
| 2026-04-26 22:24 | 34.63241 | -85.53555 | 24882 ft | 364 kts | 240° |
| 2026-04-26 22:24 | 34.61809 | -85.56059 | 25493 ft | 366 kts | 240° |
| 2026-04-26 22:24 | 34.60341 | -85.58620 | 26104 ft | 368 kts | 240° |
| 2026-04-26 22:25 | 34.58882 | -85.61175 | 26674 ft | 371 kts | 240° |
| 2026-04-26 22:25 | 34.57412 | -85.63738 | 27247 ft | 373 kts | 241° |
| 2026-04-26 22:25 | 34.55932 | -85.66325 | 27769 ft | 376 kts | 240° |
| 2026-04-26 22:25 | 34.54431 | -85.68941 | 28309 ft | 379 kts | 240° |
| 2026-04-26 22:26 | 34.52929 | -85.71559 | 28813 ft | 382 kts | 240° |
| 2026-04-26 22:26 | 34.51402 | -85.74219 | 29355 ft | 383 kts | 241° |
| 2026-04-26 22:26 | 34.49889 | -85.76855 | 29879 ft | 385 kts | 241° |
| 2026-04-26 22:26 | 34.48364 | -85.79503 | 30337 ft | 387 kts | 241° |
| 2026-04-26 22:27 | 34.46808 | -85.82209 | 30804 ft | 389 kts | 241° |
| 2026-04-26 22:27 | 34.45266 | -85.84890 | 31297 ft | 390 kts | 241° |
| 2026-04-26 22:27 | 34.43718 | -85.87573 | 31739 ft | 392 kts | 241° |
| 2026-04-26 22:27 | 34.42154 | -85.90283 | 32177 ft | 394 kts | 241° |
| 2026-04-26 22:28 | 34.40580 | -85.93014 | 32582 ft | 396 kts | 241° |
| 2026-04-26 22:28 | 34.38990 | -85.95765 | 32983 ft | 398 kts | 241° |
| 2026-04-26 22:28 | 34.37402 | -85.98513 | 33378 ft | 400 kts | 241° |
| 2026-04-26 22:28 | 34.35805 | -86.01276 | 33790 ft | 401 kts | 241° |
| 2026-04-26 22:29 | 34.34213 | -86.04023 | 33954 ft | 408 kts | 241° |
| 2026-04-26 22:29 | 34.32551 | -86.06900 | 33985 ft | 419 kts | 241° |
| 2026-04-26 22:29 | 34.29140 | -86.12781 | 33983 ft | 439 kts | 240° |
| 2026-04-26 22:30 | 34.25538 | -86.18977 | 33980 ft | 458 kts | 240° |
| 2026-04-26 22:30 | 34.21811 | -86.25378 | 33972 ft | 475 kts | 240° |
| 2026-04-26 22:31 | 34.17956 | -86.31988 | 33970 ft | 491 kts | 240° |
| 2026-04-26 22:31 | 34.13960 | -86.38825 | 33958 ft | 501 kts | 240° |
| 2026-04-26 22:32 | 34.09932 | -86.45702 | 33954 ft | 504 kts | 240° |
| 2026-04-26 22:32 | 34.05886 | -86.52602 | 33951 ft | 504 kts | 240° |
| 2026-04-26 22:33 | 33.99802 | -86.62972 | 33944 ft | 504 kts | 240° |
| 2026-04-26 22:34 | 33.95760 | -86.69836 | 33952 ft | 505 kts | 239° |
| 2026-04-26 22:34 | 33.91691 | -86.76741 | 33952 ft | 505 kts | 240° |
| 2026-04-26 22:35 | 33.87598 | -86.83673 | 33942 ft | 505 kts | 240° |
| 2026-04-26 22:35 | 33.83537 | -86.90537 | 33943 ft | 505 kts | 239° |
| 2026-04-26 22:36 | 33.79463 | -86.97409 | 33946 ft | 506 kts | 239° |
| 2026-04-26 22:36 | 33.75372 | -87.04300 | 33945 ft | 506 kts | 239° |
| 2026-04-26 22:37 | 33.71257 | -87.11215 | 33945 ft | 507 kts | 239° |
| 2026-04-26 22:37 | 33.67171 | -87.18065 | 33937 ft | 508 kts | 240° |
| 2026-04-26 22:38 | 33.63053 | -87.24960 | 33936 ft | 507 kts | 239° |
| 2026-04-26 22:38 | 33.58935 | -87.31843 | 33928 ft | 507 kts | 239° |
| 2026-04-26 22:39 | 33.54827 | -87.38697 | 33930 ft | 507 kts | 239° |
| 2026-04-26 22:39 | 33.50707 | -87.45558 | 33931 ft | 507 kts | 239° |
| 2026-04-26 22:40 | 33.46603 | -87.52373 | 33924 ft | 507 kts | 240° |
| 2026-04-26 22:40 | 33.42459 | -87.59248 | 33924 ft | 507 kts | 240° |
| 2026-04-26 22:41 | 33.38687 | -87.66287 | 33926 ft | 498 kts | 249° |
| 2026-04-26 22:41 | 33.35521 | -87.73675 | 33923 ft | 499 kts | 248° |
| 2026-04-26 22:42 | 33.32328 | -87.81039 | 33918 ft | 500 kts | 247° |
| 2026-04-26 22:42 | 33.29134 | -87.88389 | 33917 ft | 500 kts | 247° |
| 2026-04-26 22:43 | 33.25925 | -87.95760 | 33917 ft | 500 kts | 247° |
| 2026-04-26 22:43 | 33.22725 | -88.03092 | 33916 ft | 500 kts | 248° |
| 2026-04-26 22:44 | 33.19490 | -88.10492 | 33917 ft | 499 kts | 247° |
| 2026-04-26 22:44 | 33.16298 | -88.17780 | 33921 ft | 497 kts | 248° |
| 2026-04-26 22:45 | 33.13081 | -88.25106 | 33924 ft | 497 kts | 247° |
| 2026-04-26 22:45 | 33.09887 | -88.32365 | 33922 ft | 498 kts | 248° |
| 2026-04-26 22:46 | 33.06657 | -88.39684 | 33914 ft | 497 kts | 248° |
| 2026-04-26 22:46 | 33.03460 | -88.46928 | 33920 ft | 496 kts | 248° |
| 2026-04-26 22:47 | 33.00231 | -88.54227 | 33916 ft | 495 kts | 248° |
| 2026-04-26 22:47 | 32.97032 | -88.61440 | 33924 ft | 495 kts | 248° |
| 2026-04-26 22:48 | 32.93796 | -88.68714 | 33932 ft | 496 kts | 247° |
| 2026-04-26 22:48 | 32.90574 | -88.75954 | 33936 ft | 496 kts | 247° |
| 2026-04-26 22:49 | 32.87357 | -88.83167 | 33940 ft | 496 kts | 247° |
| 2026-04-26 22:49 | 32.84130 | -88.90378 | 33945 ft | 495 kts | 247° |
| 2026-04-26 22:50 | 32.80884 | -88.97624 | 33939 ft | 495 kts | 247° |
| 2026-04-26 22:50 | 32.77638 | -89.04855 | 33937 ft | 495 kts | 247° |
| 2026-04-26 22:51 | 32.74412 | -89.12024 | 33934 ft | 496 kts | 248° |
| 2026-04-26 22:51 | 32.71162 | -89.19234 | 33937 ft | 496 kts | 247° |
| 2026-04-26 22:52 | 32.67907 | -89.26445 | 33928 ft | 496 kts | 248° |
| 2026-04-26 22:52 | 32.64625 | -89.33692 | 33921 ft | 496 kts | 247° |
| 2026-04-26 22:53 | 32.61563 | -89.40923 | 33922 ft | 493 kts | 250° |
| 2026-04-26 22:53 | 32.58586 | -89.48248 | 33903 ft | 494 kts | 250° |
| 2026-04-26 22:54 | 32.55587 | -89.55622 | 33905 ft | 493 kts | 250° |
| 2026-04-26 22:54 | 32.52610 | -89.62927 | 33898 ft | 494 kts | 250° |
| 2026-04-26 22:55 | 32.49618 | -89.70248 | 33906 ft | 494 kts | 249° |
| 2026-04-26 22:55 | 32.46639 | -89.77534 | 33914 ft | 494 kts | 249° |
| 2026-04-26 22:56 | 32.43632 | -89.84848 | 33907 ft | 494 kts | 250° |
| 2026-04-26 22:56 | 32.40643 | -89.92123 | 33915 ft | 493 kts | 249° |
| 2026-04-26 22:57 | 32.37650 | -89.99400 | 33909 ft | 493 kts | 250° |
| 2026-04-26 22:57 | 32.34627 | -90.06728 | 33911 ft | 493 kts | 249° |
| 2026-04-26 22:58 | 32.31627 | -90.13983 | 33921 ft | 493 kts | 250° |
| 2026-04-26 22:58 | 32.28606 | -90.21268 | 33913 ft | 493 kts | 250° |
| 2026-04-26 22:59 | 32.25600 | -90.28515 | 33912 ft | 492 kts | 249° |
| 2026-04-26 22:59 | 32.22571 | -90.35789 | 33910 ft | 493 kts | 250° |
| 2026-04-26 23:00 | 32.19552 | -90.43028 | 33903 ft | 493 kts | 250° |
| 2026-04-26 23:00 | 32.16536 | -90.50243 | 33894 ft | 493 kts | 249° |
| 2026-04-26 23:01 | 32.13488 | -90.57527 | 33883 ft | 493 kts | 250° |
| 2026-04-26 23:01 | 32.10451 | -90.64764 | 33881 ft | 492 kts | 250° |
| 2026-04-26 23:02 | 32.07418 | -90.71989 | 33896 ft | 493 kts | 249° |
| 2026-04-26 23:02 | 32.04384 | -90.79192 | 33895 ft | 493 kts | 249° |
| 2026-04-26 23:03 | 32.01330 | -90.86421 | 33895 ft | 493 kts | 249° |
| 2026-04-26 23:03 | 31.98274 | -90.93646 | 33886 ft | 495 kts | 249° |
| 2026-04-26 23:04 | 31.95192 | -91.00930 | 33903 ft | 496 kts | 249° |
| 2026-04-26 23:04 | 31.92127 | -91.08156 | 33882 ft | 494 kts | 249° |
| 2026-04-26 23:05 | 31.88753 | -91.15201 | 33829 ft | 508 kts | 236° |
| 2026-04-26 23:05 | 31.86009 | -91.17873 | 33898 ft | 523 kts | 218° |
| 2026-04-26 23:05 | 31.82631 | -91.19629 | 33926 ft | 537 kts | 206° |
| 2026-04-26 23:06 | 31.75739 | -91.22985 | 33874 ft | 536 kts | 210° |
| 2026-04-26 23:06 | 31.68828 | -91.26438 | 33888 ft | 537 kts | 210° |
| 2026-04-26 23:07 | 31.62003 | -91.29852 | 33887 ft | 534 kts | 210° |
| 2026-04-26 23:07 | 31.54963 | -91.32760 | 33891 ft | 536 kts | 206° |
| 2026-04-26 23:08 | 31.47935 | -91.35624 | 33884 ft | 532 kts | 206° |
| 2026-04-26 23:08 | 31.44460 | -91.37034 | 33876 ft | 520 kts | 206° |
| 2026-04-26 23:08 | 31.41096 | -91.38412 | 33596 ft | 513 kts | 206° |
| 2026-04-26 23:08 | 31.37746 | -91.39771 | 33096 ft | 503 kts | 206° |
| 2026-04-26 23:09 | 31.34437 | -91.41121 | 32396 ft | 497 kts | 206° |
| 2026-04-26 23:09 | 31.31207 | -91.42431 | 31621 ft | 490 kts | 206° |
| 2026-04-26 23:09 | 31.28013 | -91.43735 | 30843 ft | 482 kts | 207° |
| 2026-04-26 23:09 | 31.24861 | -91.45009 | 30070 ft | 475 kts | 207° |
| 2026-04-26 23:10 | 31.21790 | -91.46255 | 29302 ft | 469 kts | 207° |
| 2026-04-26 23:10 | 31.18724 | -91.47506 | 28512 ft | 462 kts | 207° |
| 2026-04-26 23:10 | 31.15706 | -91.48761 | 27727 ft | 455 kts | 208° |
| 2026-04-26 23:10 | 31.12806 | -91.50120 | 26945 ft | 448 kts | 208° |
| 2026-04-26 23:11 | 31.09947 | -91.51422 | 26042 ft | 437 kts | 208° |
| 2026-04-26 23:11 | 31.07146 | -91.52709 | 25114 ft | 426 kts | 208° |
| 2026-04-26 23:11 | 31.04425 | -91.53954 | 24203 ft | 416 kts | 207° |
| 2026-04-26 23:11 | 31.01787 | -91.55160 | 23292 ft | 407 kts | 207° |
| 2026-04-26 23:12 | 30.99193 | -91.56354 | 22402 ft | 400 kts | 206° |
| 2026-04-26 23:12 | 30.96636 | -91.57511 | 21533 ft | 392 kts | 207° |
| 2026-04-26 23:12 | 30.94102 | -91.58662 | 20651 ft | 386 kts | 207° |
| 2026-04-26 23:12 | 30.91640 | -91.59787 | 19781 ft | 381 kts | 207° |
| 2026-04-26 23:13 | 30.89169 | -91.60913 | 18897 ft | 375 kts | 207° |
| 2026-04-26 23:13 | 30.86767 | -91.62008 | 18027 ft | 371 kts | 207° |
| 2026-04-26 23:13 | 30.84396 | -91.63090 | 17155 ft | 367 kts | 207° |
| 2026-04-26 23:13 | 30.82017 | -91.64179 | 16288 ft | 363 kts | 207° |
| 2026-04-26 23:14 | 30.79706 | -91.65234 | 15435 ft | 359 kts | 206° |
| 2026-04-26 23:14 | 30.77395 | -91.66290 | 14569 ft | 355 kts | 205° |
| 2026-04-26 23:14 | 30.75131 | -91.67317 | 13721 ft | 351 kts | 205° |
| 2026-04-26 23:14 | 30.72827 | -91.68284 | 12858 ft | 350 kts | 199° |
| 2026-04-26 23:15 | 30.70485 | -91.68952 | 12034 ft | 347 kts | 197° |
| 2026-04-26 23:15 | 30.68182 | -91.69627 | 11173 ft | 341 kts | 196° |
| 2026-04-26 23:15 | 30.65920 | -91.70279 | 10289 ft | 330 kts | 196° |
| 2026-04-26 23:15 | 30.63710 | -91.70923 | 9434 ft | 320 kts | 196° |
| 2026-04-26 23:16 | 30.61590 | -91.71503 | 8589 ft | 311 kts | 194° |
| 2026-04-26 23:16 | 30.59534 | -91.72048 | 7714 ft | 298 kts | 194° |
| 2026-04-26 23:16 | 30.57569 | -91.72588 | 6868 ft | 288 kts | 194° |
| 2026-04-26 23:16 | 30.55667 | -91.73124 | 6022 ft | 279 kts | 194° |
| 2026-04-26 23:17 | 30.53831 | -91.73656 | 5405 ft | 262 kts | 194° |
| 2026-04-26 23:17 | 30.52107 | -91.74161 | 4904 ft | 257 kts | 194° |
| 2026-04-26 23:17 | 30.50329 | -91.74691 | 4523 ft | 265 kts | 194° |
| 2026-04-26 23:17 | 30.48533 | -91.75234 | 4059 ft | 270 kts | 194° |
| 2026-04-26 23:18 | 30.46707 | -91.75794 | 3585 ft | 273 kts | 194° |
| 2026-04-26 23:18 | 30.44900 | -91.76382 | 3147 ft | 263 kts | 200° |
| 2026-04-26 23:18 | 30.43398 | -91.77511 | 3091 ft | 250 kts | 217° |
| 2026-04-26 23:18 | 30.42016 | -91.78735 | 3091 ft | 249 kts | 215° |
| 2026-04-26 23:19 | 30.40653 | -91.79941 | 3078 ft | 245 kts | 217° |
| 2026-04-26 23:19 | 30.39336 | -91.81174 | 3070 ft | 242 kts | 217° |
| 2026-04-26 23:19 | 30.38031 | -91.82380 | 3066 ft | 232 kts | 217° |
| 2026-04-26 23:19 | 30.36804 | -91.83514 | 3057 ft | 222 kts | 217° |
| 2026-04-26 23:20 | 30.35628 | -91.84598 | 3123 ft | 206 kts | 217° |
| 2026-04-26 23:20 | 30.34520 | -91.85623 | 3079 ft | 201 kts | 217° |
| 2026-04-26 23:20 | 30.33460 | -91.86604 | 2883 ft | 186 kts | 217° |
| 2026-04-26 23:20 | 30.32492 | -91.87502 | 2643 ft | 168 kts | 216° |
| 2026-04-26 23:21 | 30.31616 | -91.88313 | 2439 ft | 156 kts | 216° |
| 2026-04-26 23:21 | 30.30794 | -91.89070 | 2248 ft | 147 kts | 215° |
| 2026-04-26 23:21 | 30.30011 | -91.89793 | 2070 ft | 139 kts | 215° |
| 2026-04-26 23:21 | 30.29261 | -91.90479 | 1905 ft | 138 kts | 214° |
| 2026-04-26 23:22 | 30.28506 | -91.91171 | 1752 ft | 139 kts | 214° |
| 2026-04-26 23:22 | 30.27749 | -91.91869 | 1580 ft | 138 kts | 215° |
| 2026-04-26 23:22 | 30.26999 | -91.92560 | 1412 ft | 135 kts | 214° |
| 2026-04-26 23:22 | 30.26263 | -91.93239 | 1244 ft | 136 kts | 214° |
| 2026-04-26 23:23 | 30.25520 | -91.93917 | 1075 ft | 136 kts | 215° |
| 2026-04-26 23:23 | 30.24785 | -91.94598 | 894 ft | 135 kts | 215° |
| 2026-04-26 23:23 | 30.24041 | -91.95278 | 725 ft | 134 kts | 216° |
| 2026-04-26 23:23 | 30.23325 | -91.95945 | 550 ft | 131 kts | 214° |
| 2026-04-26 23:24 | 30.22592 | -91.96609 | 390 ft | 136 kts | 215° |
| 2026-04-26 23:24 | 30.21838 | -91.97308 | 212 ft | 137 kts | 215° |
| 2026-04-26 23:24 | 30.21100 | -91.97997 | 35 ft | 136 kts | 216° |
| 2026-04-26 23:24 | 30.20440 | -91.98589 | 33 ft | 93 kts | 217° |
| 2026-04-26 23:25 | 30.20179 | -91.98845 | 35 ft | 30 kts | 237° |
| 2026-04-26 23:25 | 30.20116 | -91.98993 | 37 ft | 15 kts | 245° |
| 2026-04-26 23:25 | 30.20135 | -91.99073 | 38 ft | 8 kts | 23° |
| 2026-04-26 23:25 | 30.20215 | -91.99012 | 38 ft | 23 kts | 37° |
| 2026-04-26 23:26 | 30.20381 | -91.98875 | 36 ft | 31 kts | 34° |
| 2026-04-26 23:26 | 30.20511 | -91.98779 | 37 ft | 14 kts | 12° |
| 2026-04-26 23:26 | 30.20574 | -91.98850 | 38 ft | 13 kts | 289° |
| 2026-04-26 23:26 | 30.20631 | -91.98917 | 38 ft | 12 kts | 2° |
| 2026-04-26 23:27 | 30.20721 | -91.98888 | 38 ft | 14 kts | 20° |
| 2026-04-26 23:27 | 30.20817 | -91.98844 | 38 ft | 15 kts | 19° |
| 2026-04-26 23:27 | 30.20908 | -91.98893 | 38 ft | 12 kts | 313° |
| 2026-04-26 23:27 | 30.20941 | -91.98934 | 38 ft | 8 kts | 339° |
| 2026-04-26 23:28 | 30.20994 | -91.98929 | 37 ft | 3 kts | 67° |
| 2026-04-26 23:28 | 30.20991 | -91.98905 | 37 ft | 3 kts | 111° |
| 2026-04-26 23:28 | 30.20986 | -91.98891 | 36 ft | 1 kts | 111° |
| 2026-04-26 23:28 | 30.20985 | -91.98887 | 36 ft | 0 kts | 111° |